createdAt,value
2018-12-19T00:03:01.627Z,100.00
2018-12-19T00:08:01.601Z,100.00
2018-12-19T00:18:01.607Z,100.00
2018-12-19T00:28:01.606Z,100.00
2018-12-19T00:43:01.601Z,100.00
2018-12-19T00:58:02.496Z,100.00
2018-12-19T01:13:01.619Z,100.00
2018-12-19T01:28:01.620Z,100.00
2018-12-19T01:43:01.701Z,100.00
2018-12-19T01:48:01.530Z,100.00
2018-12-19T02:03:01.750Z,100.00
2018-12-19T02:18:01.723Z,100.00
2018-12-19T02:33:01.603Z,100.00
2018-12-19T02:48:01.596Z,100.00
2018-12-19T03:04:01.685Z,100.00
2018-12-19T03:09:01.531Z,100.00
2018-12-19T03:24:01.664Z,100.00
2018-12-19T03:39:01.643Z,99.80
2018-12-19T03:54:01.785Z,99.45
2018-12-19T04:19:01.726Z,98.34
2018-12-19T04:30:01.620Z,98.46
2018-12-19T04:45:01.681Z,98.42
2018-12-19T05:00:01.748Z,97.89
2018-12-19T05:10:01.594Z,97.99
2018-12-19T05:15:01.653Z,97.99
2018-12-19T05:30:01.637Z,97.77
2018-12-19T05:45:01.829Z,97.63
2018-12-19T05:55:01.602Z,97.73
2018-12-19T06:00:01.557Z,97.66
2018-12-19T06:15:01.620Z,97.57
2018-12-19T06:30:01.673Z,97.30
2018-12-19T06:45:01.496Z,97.24
2018-12-19T07:00:01.364Z,96.86
2018-12-19T07:15:01.640Z,96.86
2018-12-19T07:30:01.522Z,96.40
2018-12-19T07:45:01.544Z,96.27
2018-12-19T08:00:01.552Z,95.93
2018-12-19T08:10:01.517Z,95.48
2018-12-19T08:15:01.507Z,95.48
2018-12-19T08:30:01.542Z,95.48
2018-12-19T08:45:02.540Z,95.50
2018-12-19T09:00:01.570Z,95.40
2018-12-19T09:05:01.503Z,95.40
2018-12-19T09:15:06.547Z,94.83
2018-12-19T09:25:01.515Z,94.64
2018-12-19T09:30:01.559Z,94.41
2018-12-19T09:40:01.536Z,94.61
2018-12-19T09:45:01.531Z,94.61
2018-12-19T09:55:01.543Z,94.32
2018-12-19T10:00:01.583Z,94.40
2018-12-19T10:10:01.538Z,94.24
2018-12-19T10:15:01.534Z,94.24
2018-12-19T10:25:01.524Z,93.58
2018-12-19T10:30:01.555Z,93.88
2018-12-19T10:46:01.483Z,94.00
2018-12-19T11:01:01.528Z,94.06
2018-12-19T11:06:01.542Z,94.06
2018-12-19T11:21:01.537Z,94.47
2018-12-19T11:26:01.500Z,94.47
2018-12-19T11:36:01.513Z,94.49
2018-12-19T11:46:01.520Z,94.53
2018-12-19T11:56:01.523Z,94.46
2018-12-19T12:11:01.502Z,95.81
2018-12-19T12:26:01.526Z,96.52
2018-12-19T12:41:01.562Z,97.93
2018-12-19T12:46:01.522Z,97.93
2018-12-19T13:01:01.523Z,99.16
2018-12-19T13:16:01.556Z,100.00
2018-12-19T13:31:01.553Z,100.00
2018-12-19T13:46:01.802Z,100.00
2018-12-19T14:01:01.504Z,100.00
2018-12-19T14:16:01.544Z,100.00
2018-12-19T14:32:01.489Z,100.00
2018-12-19T14:47:01.527Z,100.00
2018-12-19T15:02:01.494Z,100.00
2018-12-19T15:17:01.537Z,100.00
2018-12-19T15:22:01.503Z,100.00
2018-12-19T15:38:01.509Z,100.00
2018-12-19T15:48:01.521Z,100.00
2018-12-19T16:03:01.529Z,100.00
2018-12-19T16:08:01.370Z,100.00
2018-12-19T16:23:01.537Z,100.00
2018-12-19T16:33:01.602Z,100.00
2018-12-19T16:48:01.590Z,100.00
2018-12-19T17:03:01.720Z,100.00
2018-12-19T17:13:01.628Z,100.00
2018-12-19T17:28:01.599Z,100.00
2018-12-19T17:43:01.606Z,100.00
2018-12-19T17:58:01.591Z,100.00
2018-12-19T18:13:08.250Z,100.00
2018-12-19T18:18:01.551Z,100.00
2018-12-19T18:33:01.672Z,100.00
2018-12-19T18:38:01.535Z,100.00
2018-12-19T18:53:01.587Z,100.00
2018-12-19T18:58:01.534Z,100.00
2018-12-19T19:13:01.628Z,100.00
2018-12-19T19:28:01.724Z,100.00
2018-12-19T19:38:01.587Z,100.00
2018-12-19T19:53:01.663Z,100.00
2018-12-19T20:08:01.613Z,100.00
2018-12-19T20:23:01.571Z,100.00
2018-12-19T20:38:01.652Z,100.00
2018-12-19T20:53:01.680Z,100.00
2018-12-19T21:08:01.705Z,100.00
2018-12-19T21:18:06.480Z,100.00
2018-12-19T21:33:06.389Z,100.00
2018-12-19T21:48:01.617Z,100.00
2018-12-19T22:03:01.715Z,100.00
2018-12-19T22:08:01.635Z,100.00
2018-12-19T22:23:01.672Z,100.00
2018-12-19T22:33:01.436Z,100.00
2018-12-19T22:48:01.884Z,100.00
2018-12-19T22:58:01.774Z,100.00
2018-12-19T23:03:02.030Z,100.00
2018-12-19T23:13:01.483Z,100.00
2018-12-19T23:28:01.845Z,100.00
2018-12-19T23:43:01.726Z,100.00
2018-12-19T23:58:01.940Z,100.00
